<?xml version="1.0" encoding="UTF-8" standalone="no" ?>
<gpx xmlns="http://www.topografix.com/GPX/1/1" xmlns:xsi="http://www.w3.org/2001/XMLSchema-instance" xsi:schemaLocation="http://www.topografix.com/GPX/1/1 http://www.topografix.com/GPX/1/1/gpx.xsd" version="1.1" creator="VisuGPX - https://www.visugpx.com">
  <metadata>
    <name>Saint-Laurent-sur-Sèvre Salle de sport - la Clavelière</name>
  </metadata>
  <trk>
    <name><![CDATA[14237128-Salle de sport-la Clavelière]]></name>
    <trkseg>
      <trkpt lat="46.964" lon="-0.89236">
        <ele>115</ele>
        <time>2022-02-22T10:33:46Z</time>
      </trkpt>
      <trkpt lat="46.96409" lon="-0.89297">
        <ele>117</ele>
        <time>2022-02-22T10:34:20Z</time>
      </trkpt>
      <trkpt lat="46.96404" lon="-0.89325">
        <ele>118</ele>
        <time>2022-02-22T10:34:36Z</time>
      </trkpt>
      <trkpt lat="46.96365" lon="-0.89419">
        <ele>117</ele>
        <time>2022-02-22T10:35:36Z</time>
      </trkpt>
      <trkpt lat="46.9633" lon="-0.89464">
        <ele>120</ele>
        <time>2022-02-22T10:36:13Z</time>
      </trkpt>
      <trkpt lat="46.9629" lon="-0.89488">
        <ele>120</ele>
        <time>2022-02-22T10:36:48Z</time>
      </trkpt>
      <trkpt lat="46.96234" lon="-0.89534">
        <ele>117</ele>
        <time>2022-02-22T10:37:39Z</time>
      </trkpt>
      <trkpt lat="46.96225" lon="-0.89554">
        <ele>116</ele>
        <time>2022-02-22T10:37:52Z</time>
      </trkpt>
      <trkpt lat="46.9623" lon="-0.89571">
        <ele>116</ele>
        <time>2022-02-22T10:38:03Z</time>
      </trkpt>
      <trkpt lat="46.96324" lon="-0.89652">
        <ele>119</ele>
        <time>2022-02-22T10:39:30Z</time>
      </trkpt>
      <trkpt lat="46.96347" lon="-0.89698">
        <ele>117</ele>
        <time>2022-02-22T10:40:01Z</time>
      </trkpt>
      <trkpt lat="46.96428" lon="-0.89761">
        <ele>120</ele>
        <time>2022-02-22T10:41:14Z</time>
      </trkpt>
      <trkpt lat="46.96451" lon="-0.89827">
        <ele>118</ele>
        <time>2022-02-22T10:41:55Z</time>
      </trkpt>
      <trkpt lat="46.96445" lon="-0.89839">
        <ele>116</ele>
        <time>2022-02-22T10:42:03Z</time>
      </trkpt>
      <trkpt lat="46.96447" lon="-0.89863">
        <ele>116</ele>
        <time>2022-02-22T10:42:16Z</time>
      </trkpt>
      <trkpt lat="46.96442" lon="-0.89875">
        <ele>115</ele>
        <time>2022-02-22T10:42:24Z</time>
      </trkpt>
      <trkpt lat="46.96469" lon="-0.89997">
        <ele>119</ele>
        <time>2022-02-22T10:43:34Z</time>
      </trkpt>
      <trkpt lat="46.96466" lon="-0.90057">
        <ele>115</ele>
        <time>2022-02-22T10:44:07Z</time>
      </trkpt>
      <trkpt lat="46.96485" lon="-0.90104">
        <ele>113</ele>
        <time>2022-02-22T10:44:37Z</time>
      </trkpt>
      <trkpt lat="46.96493" lon="-0.90113">
        <ele>113</ele>
        <time>2022-02-22T10:44:45Z</time>
      </trkpt>
      <trkpt lat="46.96527" lon="-0.90145">
        <ele>112</ele>
        <time>2022-02-22T10:45:17Z</time>
      </trkpt>
      <trkpt lat="46.96529" lon="-0.90151">
        <ele>111</ele>
        <time>2022-02-22T10:45:21Z</time>
      </trkpt>
      <trkpt lat="46.96569" lon="-0.90157">
        <ele>113</ele>
        <time>2022-02-22T10:45:53Z</time>
      </trkpt>
      <trkpt lat="46.96596" lon="-0.9018">
        <ele>113</ele>
        <time>2022-02-22T10:46:18Z</time>
      </trkpt>
      <trkpt lat="46.96593" lon="-0.90206">
        <ele>111</ele>
        <time>2022-02-22T10:46:32Z</time>
      </trkpt>
      <trkpt lat="46.96633" lon="-0.90239">
        <ele>113</ele>
        <time>2022-02-22T10:47:09Z</time>
      </trkpt>
      <trkpt lat="46.96657" lon="-0.90268">
        <ele>112</ele>
        <time>2022-02-22T10:47:34Z</time>
      </trkpt>
      <trkpt lat="46.96693" lon="-0.90298">
        <ele>114</ele>
        <time>2022-02-22T10:48:07Z</time>
      </trkpt>
      <trkpt lat="46.96718" lon="-0.9034">
        <ele>115</ele>
        <time>2022-02-22T10:48:38Z</time>
      </trkpt>
      <trkpt lat="46.96722" lon="-0.90395">
        <ele>113</ele>
        <time>2022-02-22T10:49:08Z</time>
      </trkpt>
      <trkpt lat="46.96727" lon="-0.90423">
        <ele>112</ele>
        <time>2022-02-22T10:49:24Z</time>
      </trkpt>
      <trkpt lat="46.96729" lon="-0.90462">
        <ele>111</ele>
        <time>2022-02-22T10:49:45Z</time>
      </trkpt>
      <trkpt lat="46.96741" lon="-0.90502">
        <ele>109</ele>
        <time>2022-02-22T10:50:09Z</time>
      </trkpt>
      <trkpt lat="46.9675" lon="-0.90521">
        <ele>108</ele>
        <time>2022-02-22T10:50:22Z</time>
      </trkpt>
      <trkpt lat="46.96761" lon="-0.90529">
        <ele>108</ele>
        <time>2022-02-22T10:50:31Z</time>
      </trkpt>
      <trkpt lat="46.96767" lon="-0.90542">
        <ele>108</ele>
        <time>2022-02-22T10:50:40Z</time>
      </trkpt>
      <trkpt lat="46.96766" lon="-0.9055">
        <ele>108</ele>
        <time>2022-02-22T10:50:44Z</time>
      </trkpt>
      <trkpt lat="46.96775" lon="-0.90563">
        <ele>108</ele>
        <time>2022-02-22T10:50:55Z</time>
      </trkpt>
      <trkpt lat="46.96786" lon="-0.90551">
        <ele>108</ele>
        <time>2022-02-22T10:51:06Z</time>
      </trkpt>
      <trkpt lat="46.96799" lon="-0.90554">
        <ele>108</ele>
        <time>2022-02-22T10:51:16Z</time>
      </trkpt>
      <trkpt lat="46.96803" lon="-0.90561">
        <ele>108</ele>
        <time>2022-02-22T10:51:21Z</time>
      </trkpt>
      <trkpt lat="46.96824" lon="-0.90569">
        <ele>108</ele>
        <time>2022-02-22T10:51:38Z</time>
      </trkpt>
      <trkpt lat="46.96868" lon="-0.90495">
        <ele>114</ele>
        <time>2022-02-22T10:52:32Z</time>
      </trkpt>
      <trkpt lat="46.96896" lon="-0.90451">
        <ele>115</ele>
        <time>2022-02-22T10:53:05Z</time>
      </trkpt>
      <trkpt lat="46.96926" lon="-0.90422">
        <ele>113</ele>
        <time>2022-02-22T10:53:34Z</time>
      </trkpt>
      <trkpt lat="46.9696" lon="-0.90413">
        <ele>116</ele>
        <time>2022-02-22T10:54:01Z</time>
      </trkpt>
      <trkpt lat="46.97034" lon="-0.90345">
        <ele>111</ele>
        <time>2022-02-22T10:55:11Z</time>
      </trkpt>
      <trkpt lat="46.97086" lon="-0.90352">
        <ele>112</ele>
        <time>2022-02-22T10:55:53Z</time>
      </trkpt>
      <trkpt lat="46.97122" lon="-0.90377">
        <ele>113</ele>
        <time>2022-02-22T10:56:25Z</time>
      </trkpt>
      <trkpt lat="46.97163" lon="-0.90373">
        <ele>109</ele>
        <time>2022-02-22T10:56:58Z</time>
      </trkpt>
      <trkpt lat="46.97174" lon="-0.90374">
        <ele>109</ele>
        <time>2022-02-22T10:57:07Z</time>
      </trkpt>
      <trkpt lat="46.97197" lon="-0.90334">
        <ele>110</ele>
        <time>2022-02-22T10:57:35Z</time>
      </trkpt>
      <trkpt lat="46.97259" lon="-0.90279">
        <ele>115</ele>
        <time>2022-02-22T10:58:33Z</time>
      </trkpt>
      <trkpt lat="46.97448" lon="-0.90163">
        <ele>130</ele>
        <time>2022-02-22T11:01:17Z</time>
      </trkpt>
      <trkpt lat="46.9749" lon="-0.90165">
        <ele>132</ele>
        <time>2022-02-22T11:01:51Z</time>
      </trkpt>
      <trkpt lat="46.9751" lon="-0.90128">
        <ele>132</ele>
        <time>2022-02-22T11:02:17Z</time>
      </trkpt>
      <trkpt lat="46.97528" lon="-0.90076">
        <ele>130</ele>
        <time>2022-02-22T11:02:49Z</time>
      </trkpt>
      <trkpt lat="46.97525" lon="-0.90048">
        <ele>129</ele>
        <time>2022-02-22T11:03:04Z</time>
      </trkpt>
      <trkpt lat="46.9752" lon="-0.90036">
        <ele>129</ele>
        <time>2022-02-22T11:03:12Z</time>
      </trkpt>
      <trkpt lat="46.9752" lon="-0.90016">
        <ele>128</ele>
        <time>2022-02-22T11:03:23Z</time>
      </trkpt>
      <trkpt lat="46.9754" lon="-0.8997">
        <ele>127</ele>
        <time>2022-02-22T11:03:53Z</time>
      </trkpt>
      <trkpt lat="46.97609" lon="-0.8985">
        <ele>124</ele>
        <time>2022-02-22T11:05:18Z</time>
      </trkpt>
      <trkpt lat="46.97623" lon="-0.89819">
        <ele>124</ele>
        <time>2022-02-22T11:05:39Z</time>
      </trkpt>
      <trkpt lat="46.97631" lon="-0.89779">
        <ele>124</ele>
        <time>2022-02-22T11:06:01Z</time>
      </trkpt>
      <trkpt lat="46.97633" lon="-0.89757">
        <ele>123</ele>
        <time>2022-02-22T11:06:14Z</time>
      </trkpt>
      <trkpt lat="46.97633" lon="-0.89736">
        <ele>122</ele>
        <time>2022-02-22T11:06:25Z</time>
      </trkpt>
      <trkpt lat="46.9762" lon="-0.89679">
        <ele>120</ele>
        <time>2022-02-22T11:06:58Z</time>
      </trkpt>
      <trkpt lat="46.97611" lon="-0.89616">
        <ele>116</ele>
        <time>2022-02-22T11:07:33Z</time>
      </trkpt>
      <trkpt lat="46.97602" lon="-0.89591">
        <ele>115</ele>
        <time>2022-02-22T11:07:48Z</time>
      </trkpt>
      <trkpt lat="46.97589" lon="-0.89567">
        <ele>113</ele>
        <time>2022-02-22T11:08:05Z</time>
      </trkpt>
      <trkpt lat="46.97584" lon="-0.89547">
        <ele>113</ele>
        <time>2022-02-22T11:08:17Z</time>
      </trkpt>
      <trkpt lat="46.97584" lon="-0.89525">
        <ele>112</ele>
        <time>2022-02-22T11:08:29Z</time>
      </trkpt>
      <trkpt lat="46.97592" lon="-0.89481">
        <ele>111</ele>
        <time>2022-02-22T11:08:54Z</time>
      </trkpt>
      <trkpt lat="46.97605" lon="-0.89454">
        <ele>111</ele>
        <time>2022-02-22T11:09:12Z</time>
      </trkpt>
      <trkpt lat="46.97615" lon="-0.89444">
        <ele>111</ele>
        <time>2022-02-22T11:09:21Z</time>
      </trkpt>
      <trkpt lat="46.97627" lon="-0.89443">
        <ele>112</ele>
        <time>2022-02-22T11:09:31Z</time>
      </trkpt>
      <trkpt lat="46.97648" lon="-0.89453">
        <ele>112</ele>
        <time>2022-02-22T11:09:49Z</time>
      </trkpt>
      <trkpt lat="46.97672" lon="-0.89476">
        <ele>112</ele>
        <time>2022-02-22T11:10:12Z</time>
      </trkpt>
      <trkpt lat="46.97688" lon="-0.89252">
        <ele>112</ele>
        <time>2022-02-22T11:12:15Z</time>
      </trkpt>
      <trkpt lat="46.97565" lon="-0.89201">
        <ele>110</ele>
        <time>2022-02-22T11:13:57Z</time>
      </trkpt>
      <trkpt lat="46.97532" lon="-0.89195">
        <ele>110</ele>
        <time>2022-02-22T11:14:24Z</time>
      </trkpt>
      <trkpt lat="46.97437" lon="-0.892">
        <ele>113</ele>
        <time>2022-02-22T11:15:40Z</time>
      </trkpt>
      <trkpt lat="46.97432" lon="-0.88828">
        <ele>112</ele>
        <time>2022-02-22T11:19:03Z</time>
      </trkpt>
      <trkpt lat="46.97498" lon="-0.88556">
        <ele>114</ele>
        <time>2022-02-22T11:21:41Z</time>
      </trkpt>
      <trkpt lat="46.97492" lon="-0.88541">
        <ele>115</ele>
        <time>2022-02-22T11:21:50Z</time>
      </trkpt>
      <trkpt lat="46.97484" lon="-0.8854">
        <ele>115</ele>
        <time>2022-02-22T11:21:57Z</time>
      </trkpt>
      <trkpt lat="46.97371" lon="-0.88539">
        <ele>115</ele>
        <time>2022-02-22T11:23:27Z</time>
      </trkpt>
      <trkpt lat="46.9725" lon="-0.88492">
        <ele>115</ele>
        <time>2022-02-22T11:25:08Z</time>
      </trkpt>
      <trkpt lat="46.97232" lon="-0.88474">
        <ele>115</ele>
        <time>2022-02-22T11:25:25Z</time>
      </trkpt>
      <trkpt lat="46.97135" lon="-0.88328">
        <ele>117</ele>
        <time>2022-02-22T11:27:16Z</time>
      </trkpt>
      <trkpt lat="46.97052" lon="-0.88014">
        <ele>117</ele>
        <time>2022-02-22T11:30:20Z</time>
      </trkpt>
      <trkpt lat="46.97011" lon="-0.8782">
        <ele>121</ele>
        <time>2022-02-22T11:32:11Z</time>
      </trkpt>
      <trkpt lat="46.97001" lon="-0.87797">
        <ele>121</ele>
        <time>2022-02-22T11:32:26Z</time>
      </trkpt>
      <trkpt lat="46.96997" lon="-0.87811">
        <ele>121</ele>
        <time>2022-02-22T11:32:34Z</time>
      </trkpt>
      <trkpt lat="46.9691" lon="-0.87886">
        <ele>122</ele>
        <time>2022-02-22T11:33:55Z</time>
      </trkpt>
      <trkpt lat="46.96838" lon="-0.87971">
        <ele>124</ele>
        <time>2022-02-22T11:35:09Z</time>
      </trkpt>
      <trkpt lat="46.9679" lon="-0.88022">
        <ele>126</ele>
        <time>2022-02-22T11:35:57Z</time>
      </trkpt>
      <trkpt lat="46.96707" lon="-0.88083">
        <ele>131</ele>
        <time>2022-02-22T11:37:11Z</time>
      </trkpt>
      <trkpt lat="46.96675" lon="-0.88111">
        <ele>133</ele>
        <time>2022-02-22T11:37:41Z</time>
      </trkpt>
      <trkpt lat="46.96641" lon="-0.88158">
        <ele>137</ele>
        <time>2022-02-22T11:38:18Z</time>
      </trkpt>
      <trkpt lat="46.96558" lon="-0.88366">
        <ele>147</ele>
        <time>2022-02-22T11:40:30Z</time>
      </trkpt>
      <trkpt lat="46.96516" lon="-0.88443">
        <ele>150</ele>
        <time>2022-02-22T11:41:24Z</time>
      </trkpt>
      <trkpt lat="46.96498" lon="-0.88465">
        <ele>150</ele>
        <time>2022-02-22T11:41:43Z</time>
      </trkpt>
      <trkpt lat="46.96432" lon="-0.88505">
        <ele>150</ele>
        <time>2022-02-22T11:42:40Z</time>
      </trkpt>
      <trkpt lat="46.96419" lon="-0.88507">
        <ele>150</ele>
        <time>2022-02-22T11:42:50Z</time>
      </trkpt>
      <trkpt lat="46.96411" lon="-0.88504">
        <ele>150</ele>
        <time>2022-02-22T11:42:57Z</time>
      </trkpt>
      <trkpt lat="46.96412" lon="-0.88548">
        <ele>148</ele>
        <time>2022-02-22T11:43:21Z</time>
      </trkpt>
      <trkpt lat="46.96354" lon="-0.88582">
        <ele>145</ele>
        <time>2022-02-22T11:44:11Z</time>
      </trkpt>
      <trkpt lat="46.96397" lon="-0.88683">
        <ele>145</ele>
        <time>2022-02-22T11:45:16Z</time>
      </trkpt>
      <trkpt lat="46.96382" lon="-0.88812">
        <ele>138</ele>
        <time>2022-02-22T11:46:28Z</time>
      </trkpt>
      <trkpt lat="46.96367" lon="-0.88881">
        <ele>128</ele>
        <time>2022-02-22T11:47:07Z</time>
      </trkpt>
      <trkpt lat="46.9635" lon="-0.88939">
        <ele>119</ele>
        <time>2022-02-22T11:47:42Z</time>
      </trkpt>
      <trkpt lat="46.96408" lon="-0.88968">
        <ele>122</ele>
        <time>2022-02-22T11:48:31Z</time>
      </trkpt>
      <trkpt lat="46.96451" lon="-0.88998">
        <ele>125</ele>
        <time>2022-02-22T11:49:09Z</time>
      </trkpt>
      <trkpt lat="46.96483" lon="-0.89035">
        <ele>128</ele>
        <time>2022-02-22T11:49:41Z</time>
      </trkpt>
      <trkpt lat="46.96426" lon="-0.89152">
        <ele>117</ele>
        <time>2022-02-22T11:51:00Z</time>
      </trkpt>
      <trkpt lat="46.9641" lon="-0.8918">
        <ele>116</ele>
        <time>2022-02-22T11:51:20Z</time>
      </trkpt>
      <trkpt lat="46.96386" lon="-0.89199">
        <ele>114</ele>
        <time>2022-02-22T11:51:42Z</time>
      </trkpt>
      <trkpt lat="46.964" lon="-0.89236">
        <ele>115</ele>
        <time>2022-02-22T11:52:05Z</time>
      </trkpt>
    </trkseg>
  </trk>
</gpx>